Terminal Aerodrome Forecast
Issued by NWS Wilmington, NC

Home | Current Version | Previous Version | Text Only | Print | Product List | Glossary On
Versions: 1 2 3 4 5 6 7 8 9 10 11 12 13 14 15 16 17 18 19 20 21
489
FTUS42 KILM 071134
TAFMYR
TAF
KMYR 071134Z 0712/0812 01022G32KT 5SM RA BR BKN009 BKN020 OVC050
      TEMPO 0714/0718 1SM +RA BR OVC009
     FM071900 34027G38KT 3SM -RA BR BKN007 OVC015
     FM080000 33017G27KT P6SM BKN030 OVC050
     FM080600 29011KT P6SM SCT050=

USA.gov is the U.S. government's official web portal to all federal, state and local government web resources and services.